sensor_id;sensor_type;location;lat;lon;timestamp;temperature;humidity
14699;DHT22;7439;50.804;4.602;2023-05-10T00:01:20;11.80;99.90
14699;DHT22;7439;50.804;4.602;2023-05-10T00:03:47;11.80;99.90
14699;DHT22;7439;50.804;4.602;2023-05-10T00:06:14;11.80;99.90
14699;DHT22;7439;50.804;4.602;2023-05-10T00:08:41;11.80;99.90
14699;DHT22;7439;50.804;4.602;2023-05-10T00:11:09;11.80;99.90
14699;DHT22;7439;50.804;4.602;2023-05-10T00:13:36;11.80;99.90
14699;DHT22;7439;50.804;4.602;2023-05-10T00:16:08;11.80;99.90
14699;DHT22;7439;50.804;4.602;2023-05-10T00:18:39;11.80;99.90
14699;DHT22;7439;50.804;4.602;2023-05-10T00:21:07;11.80;99.90
14699;DHT22;7439;50.804;4.602;2023-05-10T00:23:34;11.80;99.90
14699;DHT22;7439;50.804;4.602;2023-05-10T00:26:04;11.80;99.90
14699;DHT22;7439;50.804;4.602;2023-05-10T00:28:32;11.80;99.90
14699;DHT22;7439;50.804;4.602;2023-05-10T00:30:59;11.80;99.90
14699;DHT22;7439;50.804;4.602;2023-05-10T00:33:28;11.80;99.90
14699;DHT22;7439;50.804;4.602;2023-05-10T00:35:55;11.80;99.90
14699;DHT22;7439;50.804;4.602;2023-05-10T00:38:22;11.80;99.90
14699;DHT22;7439;50.804;4.602;2023-05-10T00:40:49;11.80;99.90
14699;DHT22;7439;50.804;4.602;2023-05-10T00:43:16;11.80;99.90
14699;DHT22;7439;50.804;4.602;2023-05-10T00:45:43;11.80;99.90
14699;DHT22;7439;50.804;4.602;2023-05-10T00:48:11;11.90;99.90
14699;DHT22;7439;50.804;4.602;2023-05-10T00:50:39;11.90;99.90
14699;DHT22;7439;50.804;4.602;2023-05-10T00:53:10;11.80;99.90
14699;DHT22;7439;50.804;4.602;2023-05-10T00:55:38;11.90;99.90
14699;DHT22;7439;50.804;4.602;2023-05-10T00:58:05;11.90;99.90
14699;DHT22;7439;50.804;4.602;2023-05-10T01:00:36;11.90;99.90
14699;DHT22;7439;50.804;4.602;2023-05-10T01:03:05;11.90;99.90
14699;DHT22;7439;50.804;4.602;2023-05-10T01:05:32;11.90;99.90
14699;DHT22;7439;50.804;4.602;2023-05-10T01:08:00;11.90;99.90
14699;DHT22;7439;50.804;4.602;2023-05-10T01:10:28;11.90;99.90
14699;DHT22;7439;50.804;4.602;2023-05-10T01:12:56;11.90;99.90
14699;DHT22;7439;50.804;4.602;2023-05-10T01:15:23;11.90;99.90
14699;DHT22;7439;50.804;4.602;2023-05-10T01:17:51;11.90;99.90
14699;DHT22;7439;50.804;4.602;2023-05-10T01:20:19;11.90;99.90
14699;DHT22;7439;50.804;4.602;2023-05-10T01:23:04;11.90;99.90
14699;DHT22;7439;50.804;4.602;2023-05-10T01:29:14;11.90;99.90
14699;DHT22;7439;50.804;4.602;2023-05-10T01:32:25;11.90;99.90
14699;DHT22;7439;50.804;4.602;2023-05-10T01:35:00;12.00;99.90
14699;DHT22;7439;50.804;4.602;2023-05-10T01:37:33;12.00;99.90
14699;DHT22;7439;50.804;4.602;2023-05-10T01:40:08;11.90;99.90
14699;DHT22;7439;50.804;4.602;2023-05-10T01:42:42;11.90;99.90
14699;DHT22;7439;50.804;4.602;2023-05-10T01:45:20;12.00;99.90
14699;DHT22;7439;50.804;4.602;2023-05-10T01:47:58;11.90;99.90
14699;DHT22;7439;50.804;4.602;2023-05-10T01:50:30;12.00;99.90
14699;DHT22;7439;50.804;4.602;2023-05-10T01:53:00;12.00;99.90
14699;DHT22;7439;50.804;4.602;2023-05-10T01:55:30;12.00;99.90
14699;DHT22;7439;50.804;4.602;2023-05-10T01:58:04;12.00;99.90
14699;DHT22;7439;50.804;4.602;2023-05-10T02:00:32;12.00;99.90
14699;DHT22;7439;50.804;4.602;2023-05-10T02:03:05;12.00;99.90
14699;DHT22;7439;50.804;4.602;2023-05-10T02:05:34;12.10;99.90
14699;DHT22;7439;50.804;4.602;2023-05-10T02:08:05;12.10;99.90
14699;DHT22;7439;50.804;4.602;2023-05-10T02:10:33;12.10;99.90
14699;DHT22;7439;50.804;4.602;2023-05-10T02:13:02;12.10;99.90
14699;DHT22;7439;50.804;4.602;2023-05-10T02:15:30;12.10;99.90
14699;DHT22;7439;50.804;4.602;2023-05-10T02:17:59;12.00;99.90
14699;DHT22;7439;50.804;4.602;2023-05-10T02:20:29;12.00;99.90
14699;DHT22;7439;50.804;4.602;2023-05-10T02:22:58;12.10;99.90
14699;DHT22;7439;50.804;4.602;2023-05-10T02:25:27;12.10;99.90
14699;DHT22;7439;50.804;4.602;2023-05-10T02:27:56;12.00;99.90
14699;DHT22;7439;50.804;4.602;2023-05-10T02:30:24;12.10;99.90
14699;DHT22;7439;50.804;4.602;2023-05-10T02:32:52;12.10;99.90
14699;DHT22;7439;50.804;4.602;2023-05-10T02:35:21;12.00;99.90
14699;DHT22;7439;50.804;4.602;2023-05-10T02:37:50;12.10;99.90
14699;DHT22;7439;50.804;4.602;2023-05-10T02:40:20;12.10;99.90
14699;DHT22;7439;50.804;4.602;2023-05-10T02:42:48;12.10;99.90
14699;DHT22;7439;50.804;4.602;2023-05-10T02:45:20;12.00;99.90
14699;DHT22;7439;50.804;4.602;2023-05-10T02:47:48;12.00;99.90
14699;DHT22;7439;50.804;4.602;2023-05-10T02:50:16;12.00;99.90
14699;DHT22;7439;50.804;4.602;2023-05-10T02:52:46;12.00;99.90
14699;DHT22;7439;50.804;4.602;2023-05-10T02:55:16;12.00;99.90
14699;DHT22;7439;50.804;4.602;2023-05-10T02:57:51;12.00;99.90
14699;DHT22;7439;50.804;4.602;2023-05-10T03:00:19;12.00;99.90
14699;DHT22;7439;50.804;4.602;2023-05-10T03:02:46;12.00;99.90
14699;DHT22;7439;50.804;4.602;2023-05-10T03:05:13;12.00;99.90
14699;DHT22;7439;50.804;4.602;2023-05-10T03:07:41;12.00;99.90
14699;DHT22;7439;50.804;4.602;2023-05-10T03:10:09;12.00;99.90
14699;DHT22;7439;50.804;4.602;2023-05-10T03:12:52;12.00;99.90
14699;DHT22;7439;50.804;4.602;2023-05-10T03:15:31;12.00;99.90
14699;DHT22;7439;50.804;4.602;2023-05-10T03:18:07;12.00;99.90
14699;DHT22;7439;50.804;4.602;2023-05-10T03:20:38;12.00;99.90
14699;DHT22;7439;50.804;4.602;2023-05-10T03:23:12;12.00;99.90
14699;DHT22;7439;50.804;4.602;2023-05-10T03:25:41;12.00;99.90
14699;DHT22;7439;50.804;4.602;2023-05-10T03:28:12;12.00;99.90
14699;DHT22;7439;50.804;4.602;2023-05-10T03:30:41;12.00;99.90
14699;DHT22;7439;50.804;4.602;2023-05-10T03:33:09;12.00;99.90
14699;DHT22;7439;50.804;4.602;2023-05-10T03:35:38;12.00;99.90
14699;DHT22;7439;50.804;4.602;2023-05-10T03:38:06;12.00;99.90
14699;DHT22;7439;50.804;4.602;2023-05-10T03:40:33;12.00;99.90
14699;DHT22;7439;50.804;4.602;2023-05-10T03:43:00;12.00;99.90
14699;DHT22;7439;50.804;4.602;2023-05-10T03:45:29;12.00;99.90
14699;DHT22;7439;50.804;4.602;2023-05-10T03:47:57;12.00;99.90
14699;DHT22;7439;50.804;4.602;2023-05-10T03:50:24;12.00;99.90
14699;DHT22;7439;50.804;4.602;2023-05-10T03:52:52;12.00;99.90
14699;DHT22;7439;50.804;4.602;2023-05-10T03:55:19;11.90;99.90
14699;DHT22;7439;50.804;4.602;2023-05-10T03:57:46;11.90;99.90
14699;DHT22;7439;50.804;4.602;2023-05-10T04:00:15;11.90;99.90
14699;DHT22;7439;50.804;4.602;2023-05-10T04:02:44;11.90;99.90
14699;DHT22;7439;50.804;4.602;2023-05-10T04:05:14;11.90;99.90
14699;DHT22;7439;50.804;4.602;2023-05-10T04:07:41;11.90;99.90
14699;DHT22;7439;50.804;4.602;2023-05-10T04:10:12;11.90;99.90
14699;DHT22;7439;50.804;4.602;2023-05-10T04:12:39;11.90;99.90
14699;DHT22;7439;50.804;4.602;2023-05-10T04:15:07;11.90;99.90
14699;DHT22;7439;50.804;4.602;2023-05-10T04:17:35;11.90;99.90
14699;DHT22;7439;50.804;4.602;2023-05-10T04:20:05;11.90;99.90
14699;DHT22;7439;50.804;4.602;2023-05-10T04:22:34;11.90;99.90
14699;DHT22;7439;50.804;4.602;2023-05-10T04:25:01;11.90;99.90
14699;DHT22;7439;50.804;4.602;2023-05-10T04:27:28;11.90;99.90
14699;DHT22;7439;50.804;4.602;2023-05-10T04:29:55;11.90;99.90
14699;DHT22;7439;50.804;4.602;2023-05-10T04:32:22;11.80;99.90
14699;DHT22;7439;50.804;4.602;2023-05-10T04:34:49;11.80;99.90
14699;DHT22;7439;50.804;4.602;2023-05-10T04:37:18;11.80;99.90
14699;DHT22;7439;50.804;4.602;2023-05-10T04:39:45;11.80;99.90
14699;DHT22;7439;50.804;4.602;2023-05-10T04:42:13;11.70;99.90
14699;DHT22;7439;50.804;4.602;2023-05-10T04:44:41;11.80;99.90
14699;DHT22;7439;50.804;4.602;2023-05-10T04:47:09;11.80;99.90
14699;DHT22;7439;50.804;4.602;2023-05-10T04:49:37;11.80;99.90
14699;DHT22;7439;50.804;4.602;2023-05-10T04:52:04;11.70;99.90
14699;DHT22;7439;50.804;4.602;2023-05-10T04:54:33;11.70;99.90
14699;DHT22;7439;50.804;4.602;2023-05-10T04:57:00;11.80;99.90
14699;DHT22;7439;50.804;4.602;2023-05-10T04:59:41;11.70;99.90
14699;DHT22;7439;50.804;4.602;2023-05-10T05:02:09;11.70;99.90
14699;DHT22;7439;50.804;4.602;2023-05-10T05:04:36;11.80;99.90
14699;DHT22;7439;50.804;4.602;2023-05-10T05:07:03;11.70;99.90
14699;DHT22;7439;50.804;4.602;2023-05-10T05:09:31;11.80;99.90
14699;DHT22;7439;50.804;4.602;2023-05-10T05:12:00;11.80;99.90
14699;DHT22;7439;50.804;4.602;2023-05-10T05:14:27;11.80;99.90
14699;DHT22;7439;50.804;4.602;2023-05-10T05:16:54;11.80;99.90
14699;DHT22;7439;50.804;4.602;2023-05-10T05:19:21;11.80;99.90
14699;DHT22;7439;50.804;4.602;2023-05-10T05:21:48;11.70;99.90
14699;DHT22;7439;50.804;4.602;2023-05-10T05:24:15;11.80;99.90
14699;DHT22;7439;50.804;4.602;2023-05-10T05:26:42;11.70;99.90
14699;DHT22;7439;50.804;4.602;2023-05-10T05:29:11;11.80;99.90
14699;DHT22;7439;50.804;4.602;2023-05-10T05:31:38;11.70;99.90
14699;DHT22;7439;50.804;4.602;2023-05-10T05:34:05;11.80;99.90
14699;DHT22;7439;50.804;4.602;2023-05-10T05:36:32;11.80;99.90
14699;DHT22;7439;50.804;4.602;2023-05-10T05:39:03;11.80;99.90
14699;DHT22;7439;50.804;4.602;2023-05-10T05:41:31;11.80;99.90
14699;DHT22;7439;50.804;4.602;2023-05-10T05:43:58;11.80;99.90
14699;DHT22;7439;50.804;4.602;2023-05-10T05:46:26;11.80;99.90
14699;DHT22;7439;50.804;4.602;2023-05-10T05:48:53;11.80;99.90
14699;DHT22;7439;50.804;4.602;2023-05-10T05:51:20;11.70;99.90
14699;DHT22;7439;50.804;4.602;2023-05-10T05:53:48;11.70;99.90
14699;DHT22;7439;50.804;4.602;2023-05-10T05:56:15;11.60;99.90
14699;DHT22;7439;50.804;4.602;2023-05-10T05:58:43;11.60;99.90
14699;DHT22;7439;50.804;4.602;2023-05-10T06:01:10;11.50;99.90
14699;DHT22;7439;50.804;4.602;2023-05-10T06:03:38;11.50;99.90
14699;DHT22;7439;50.804;4.602;2023-05-10T06:06:06;11.50;99.90
14699;DHT22;7439;50.804;4.602;2023-05-10T06:08:33;11.50;99.90
14699;DHT22;7439;50.804;4.602;2023-05-10T06:11:00;11.40;99.90
14699;DHT22;7439;50.804;4.602;2023-05-10T06:13:29;11.40;99.90
14699;DHT22;7439;50.804;4.602;2023-05-10T06:15:58;11.40;99.90
14699;DHT22;7439;50.804;4.602;2023-05-10T06:18:25;11.30;99.90
14699;DHT22;7439;50.804;4.602;2023-05-10T06:20:53;11.30;99.90
14699;DHT22;7439;50.804;4.602;2023-05-10T06:23:21;11.30;99.90
14699;DHT22;7439;50.804;4.602;2023-05-10T06:25:48;11.20;99.90
14699;DHT22;7439;50.804;4.602;2023-05-10T06:28:15;11.20;99.90
14699;DHT22;7439;50.804;4.602;2023-05-10T06:30:42;11.10;99.90
14699;DHT22;7439;50.804;4.602;2023-05-10T06:33:10;11.10;99.90
14699;DHT22;7439;50.804;4.602;2023-05-10T06:35:41;11.10;99.90
14699;DHT22;7439;50.804;4.602;2023-05-10T06:38:10;11.10;99.90
14699;DHT22;7439;50.804;4.602;2023-05-10T06:40:40;11.10;99.90
14699;DHT22;7439;50.804;4.602;2023-05-10T06:43:07;11.10;99.90
14699;DHT22;7439;50.804;4.602;2023-05-10T06:45:34;11.10;99.90
14699;DHT22;7439;50.804;4.602;2023-05-10T06:48:02;11.10;99.90
14699;DHT22;7439;50.804;4.602;2023-05-10T06:50:29;11.10;99.90
14699;DHT22;7439;50.804;4.602;2023-05-10T06:52:56;11.10;99.90
14699;DHT22;7439;50.804;4.602;2023-05-10T06:55:25;11.10;99.90
14699;DHT22;7439;50.804;4.602;2023-05-10T06:57:52;11.10;99.90
14699;DHT22;7439;50.804;4.602;2023-05-10T07:00:20;11.20;99.90
14699;DHT22;7439;50.804;4.602;2023-05-10T07:02:47;11.30;99.90
14699;DHT22;7439;50.804;4.602;2023-05-10T07:05:14;11.30;99.90
14699;DHT22;7439;50.804;4.602;2023-05-10T07:07:42;11.30;99.90
14699;DHT22;7439;50.804;4.602;2023-05-10T07:10:09;11.30;99.90
14699;DHT22;7439;50.804;4.602;2023-05-10T07:12:38;11.40;99.90
14699;DHT22;7439;50.804;4.602;2023-05-10T07:15:06;11.40;99.90
14699;DHT22;7439;50.804;4.602;2023-05-10T07:17:34;11.40;99.90
14699;DHT22;7439;50.804;4.602;2023-05-10T07:20:01;11.50;99.90
14699;DHT22;7439;50.804;4.602;2023-05-10T07:22:29;11.60;99.90
14699;DHT22;7439;50.804;4.602;2023-05-10T07:24:56;11.70;99.90
14699;DHT22;7439;50.804;4.602;2023-05-10T07:27:23;11.70;88.40
14699;DHT22;7439;50.804;4.602;2023-05-10T07:29:52;11.70;1.00
14699;DHT22;7439;50.804;4.602;2023-05-10T07:32:20;11.60;1.00
14699;DHT22;7439;50.804;4.602;2023-05-10T07:34:47;11.40;99.90
14699;DHT22;7439;50.804;4.602;2023-05-10T07:37:17;11.40;99.90
14699;DHT22;7439;50.804;4.602;2023-05-10T07:39:44;11.40;99.90
14699;DHT22;7439;50.804;4.602;2023-05-10T07:42:12;11.40;99.90
14699;DHT22;7439;50.804;4.602;2023-05-10T07:44:39;11.40;99.90
14699;DHT22;7439;50.804;4.602;2023-05-10T07:47:08;11.30;99.90
14699;DHT22;7439;50.804;4.602;2023-05-10T07:49:36;11.30;10.10
14699;DHT22;7439;50.804;4.602;2023-05-10T07:52:05;11.30;1.00
14699;DHT22;7439;50.804;4.602;2023-05-10T07:54:33;11.30;1.00
14699;DHT22;7439;50.804;4.602;2023-05-10T07:57:11;11.30;1.00
14699;DHT22;7439;50.804;4.602;2023-05-10T07:59:43;11.30;99.90
14699;DHT22;7439;50.804;4.602;2023-05-10T08:02:16;11.30;99.90
14699;DHT22;7439;50.804;4.602;2023-05-10T08:05:06;11.30;99.90
14699;DHT22;7439;50.804;4.602;2023-05-10T08:07:33;11.30;99.90
14699;DHT22;7439;50.804;4.602;2023-05-10T08:10:00;11.40;99.90
14699;DHT22;7439;50.804;4.602;2023-05-10T08:12:27;11.30;1.00
14699;DHT22;7439;50.804;4.602;2023-05-10T08:14:54;11.30;99.90
14699;DHT22;7439;50.804;4.602;2023-05-10T08:17:23;11.30;99.90
14699;DHT22;7439;50.804;4.602;2023-05-10T08:19:50;11.30;99.90
14699;DHT22;7439;50.804;4.602;2023-05-10T08:22:17;11.30;99.90
14699;DHT22;7439;50.804;4.602;2023-05-10T08:24:44;11.30;99.90
14699;DHT22;7439;50.804;4.602;2023-05-10T08:27:11;11.30;99.90
14699;DHT22;7439;50.804;4.602;2023-05-10T08:29:38;11.40;1.00
14699;DHT22;7439;50.804;4.602;2023-05-10T08:32:06;11.30;99.90
14699;DHT22;7439;50.804;4.602;2023-05-10T08:34:34;11.30;99.90
14699;DHT22;7439;50.804;4.602;2023-05-10T08:37:01;11.40;99.90
14699;DHT22;7439;50.804;4.602;2023-05-10T08:39:28;11.30;99.90
14699;DHT22;7439;50.804;4.602;2023-05-10T08:42:00;11.30;99.90
14699;DHT22;7439;50.804;4.602;2023-05-10T08:44:28;11.30;99.90
14699;DHT22;7439;50.804;4.602;2023-05-10T08:46:57;11.40;99.90
14699;DHT22;7439;50.804;4.602;2023-05-10T08:49:27;11.40;99.90
14699;DHT22;7439;50.804;4.602;2023-05-10T08:52:01;11.40;99.90
14699;DHT22;7439;50.804;4.602;2023-05-10T08:54:30;11.40;99.90
14699;DHT22;7439;50.804;4.602;2023-05-10T08:56:58;11.40;99.90
14699;DHT22;7439;50.804;4.602;2023-05-10T08:59:25;11.40;99.90
14699;DHT22;7439;50.804;4.602;2023-05-10T09:01:54;11.40;99.90
14699;DHT22;7439;50.804;4.602;2023-05-10T09:04:23;11.30;99.90
14699;DHT22;7439;50.804;4.602;2023-05-10T09:06:50;11.40;99.90
14699;DHT22;7439;50.804;4.602;2023-05-10T09:09:19;11.40;99.90
14699;DHT22;7439;50.804;4.602;2023-05-10T09:11:47;11.40;1.00
14699;DHT22;7439;50.804;4.602;2023-05-10T09:14:15;11.40;1.00
14699;DHT22;7439;50.804;4.602;2023-05-10T09:16:43;11.50;1.00
14699;DHT22;7439;50.804;4.602;2023-05-10T09:19:10;11.40;1.00
14699;DHT22;7439;50.804;4.602;2023-05-10T09:21:37;11.50;57.70
14699;DHT22;7439;50.804;4.602;2023-05-10T09:24:05;11.40;99.90
14699;DHT22;7439;50.804;4.602;2023-05-10T09:26:34;11.40;1.00
14699;DHT22;7439;50.804;4.602;2023-05-10T09:29:02;11.40;1.00
14699;DHT22;7439;50.804;4.602;2023-05-10T09:31:48;11.30;1.00
14699;DHT22;7439;50.804;4.602;2023-05-10T09:34:18;11.30;1.00
14699;DHT22;7439;50.804;4.602;2023-05-10T09:36:52;11.30;1.00
14699;DHT22;7439;50.804;4.602;2023-05-10T09:39:20;11.30;1.00
14699;DHT22;7439;50.804;4.602;2023-05-10T09:41:49;11.30;1.00
14699;DHT22;7439;50.804;4.602;2023-05-10T09:44:19;11.30;9.50
14699;DHT22;7439;50.804;4.602;2023-05-10T09:46:50;11.40;99.90
14699;DHT22;7439;50.804;4.602;2023-05-10T09:49:21;11.50;99.90
14699;DHT22;7439;50.804;4.602;2023-05-10T09:52:01;11.50;1.00
14699;DHT22;7439;50.804;4.602;2023-05-10T09:54:29;11.50;1.00
14699;DHT22;7439;50.804;4.602;2023-05-10T09:56:57;11.60;1.00
14699;DHT22;7439;50.804;4.602;2023-05-10T09:59:25;11.60;1.00
14699;DHT22;7439;50.804;4.602;2023-05-10T10:01:55;11.60;1.00
14699;DHT22;7439;50.804;4.602;2023-05-10T10:04:22;11.60;1.00
14699;DHT22;7439;50.804;4.602;2023-05-10T10:06:58;11.70;1.00
14699;DHT22;7439;50.804;4.602;2023-05-10T10:09:26;11.70;1.00
14699;DHT22;7439;50.804;4.602;2023-05-10T10:11:54;11.60;99.90
14699;DHT22;7439;50.804;4.602;2023-05-10T10:14:23;11.70;1.00
14699;DHT22;7439;50.804;4.602;2023-05-10T10:16:51;11.70;1.00
14699;DHT22;7439;50.804;4.602;2023-05-10T10:19:19;11.70;99.90
14699;DHT22;7439;50.804;4.602;2023-05-10T10:21:46;11.70;99.90
14699;DHT22;7439;50.804;4.602;2023-05-10T10:24:13;11.70;99.90
14699;DHT22;7439;50.804;4.602;2023-05-10T10:26:41;11.70;99.90
14699;DHT22;7439;50.804;4.602;2023-05-10T10:29:15;11.80;99.90
14699;DHT22;7439;50.804;4.602;2023-05-10T10:31:51;11.80;99.90
14699;DHT22;7439;50.804;4.602;2023-05-10T10:34:25;11.90;99.90
14699;DHT22;7439;50.804;4.602;2023-05-10T10:36:54;11.90;99.90
14699;DHT22;7439;50.804;4.602;2023-05-10T10:39:23;11.90;99.90
14699;DHT22;7439;50.804;4.602;2023-05-10T10:41:52;11.90;99.90
14699;DHT22;7439;50.804;4.602;2023-05-10T10:44:33;11.90;93.40
14699;DHT22;7439;50.804;4.602;2023-05-10T10:47:04;12.00;12.80
14699;DHT22;7439;50.804;4.602;2023-05-10T10:49:37;12.10;1.00
14699;DHT22;7439;50.804;4.602;2023-05-10T10:52:24;12.00;1.00
14699;DHT22;7439;50.804;4.602;2023-05-10T10:54:59;11.90;1.00
14699;DHT22;7439;50.804;4.602;2023-05-10T10:57:27;12.00;1.00
14699;DHT22;7439;50.804;4.602;2023-05-10T11:00:26;12.00;99.90
14699;DHT22;7439;50.804;4.602;2023-05-10T11:02:57;11.90;1.00
14699;DHT22;7439;50.804;4.602;2023-05-10T11:08:26;12.10;1.00
14699;DHT22;7439;50.804;4.602;2023-05-10T11:11:03;12.10;1.00
14699;DHT22;7439;50.804;4.602;2023-05-10T11:13:34;12.20;1.00
14699;DHT22;7439;50.804;4.602;2023-05-10T11:16:12;12.20;99.90
14699;DHT22;7439;50.804;4.602;2023-05-10T11:18:58;12.20;73.40
14699;DHT22;7439;50.804;4.602;2023-05-10T11:21:27;12.30;1.00
14699;DHT22;7439;50.804;4.602;2023-05-10T11:23:55;12.40;1.00
14699;DHT22;7439;50.804;4.602;2023-05-10T11:26:24;12.50;1.00
14699;DHT22;7439;50.804;4.602;2023-05-10T11:28:53;12.60;99.90
14699;DHT22;7439;50.804;4.602;2023-05-10T11:31:22;12.70;90.80
14699;DHT22;7439;50.804;4.602;2023-05-10T11:33:55;12.70;99.90
14699;DHT22;7439;50.804;4.602;2023-05-10T11:36:25;12.90;99.90
14699;DHT22;7439;50.804;4.602;2023-05-10T11:38:53;12.90;1.00
14699;DHT22;7439;50.804;4.602;2023-05-10T11:41:21;12.90;99.90
14699;DHT22;7439;50.804;4.602;2023-05-10T11:43:50;13.10;99.90
14699;DHT22;7439;50.804;4.602;2023-05-10T11:46:19;13.20;6.80
14699;DHT22;7439;50.804;4.602;2023-05-10T11:48:48;13.30;1.00
14699;DHT22;7439;50.804;4.602;2023-05-10T11:51:20;13.40;99.90
14699;DHT22;7439;50.804;4.602;2023-05-10T11:53:49;13.40;99.90
14699;DHT22;7439;50.804;4.602;2023-05-10T11:56:16;13.30;1.00
14699;DHT22;7439;50.804;4.602;2023-05-10T11:58:44;13.40;1.00
14699;DHT22;7439;50.804;4.602;2023-05-10T12:01:12;13.50;99.90
14699;DHT22;7439;50.804;4.602;2023-05-10T12:03:40;13.50;1.00
14699;DHT22;7439;50.804;4.602;2023-05-10T12:06:07;13.80;99.90
14699;DHT22;7439;50.804;4.602;2023-05-10T12:08:36;14.10;99.90
14699;DHT22;7439;50.804;4.602;2023-05-10T12:11:08;14.00;1.00
14699;DHT22;7439;50.804;4.602;2023-05-10T12:13:38;14.00;1.00
14699;DHT22;7439;50.804;4.602;2023-05-10T12:16:17;14.10;1.00
14699;DHT22;7439;50.804;4.602;2023-05-10T12:18:45;14.00;1.00
14699;DHT22;7439;50.804;4.602;2023-05-10T12:21:12;14.30;3.70
14699;DHT22;7439;50.804;4.602;2023-05-10T12:23:41;14.60;1.00
14699;DHT22;7439;50.804;4.602;2023-05-10T12:26:09;14.90;1.00
14699;DHT22;7439;50.804;4.602;2023-05-10T12:28:37;14.90;99.90
14699;DHT22;7439;50.804;4.602;2023-05-10T12:31:05;14.70;1.00
14699;DHT22;7439;50.804;4.602;2023-05-10T12:33:36;14.60;1.00
14699;DHT22;7439;50.804;4.602;2023-05-10T12:36:05;15.10;1.00
14699;DHT22;7439;50.804;4.602;2023-05-10T12:38:34;15.50;99.90
14699;DHT22;7439;50.804;4.602;2023-05-10T12:41:06;15.60;70.40
14699;DHT22;7439;50.804;4.602;2023-05-10T12:43:34;15.60;1.00
14699;DHT22;7439;50.804;4.602;2023-05-10T12:46:05;15.90;1.00
14699;DHT22;7439;50.804;4.602;2023-05-10T12:48:35;15.80;99.90
14699;DHT22;7439;50.804;4.602;2023-05-10T12:51:03;15.40;99.90
14699;DHT22;7439;50.804;4.602;2023-05-10T12:53:31;15.40;99.90
14699;DHT22;7439;50.804;4.602;2023-05-10T12:55:58;15.50;99.90
14699;DHT22;7439;50.804;4.602;2023-05-10T12:58:26;15.40;1.00
14699;DHT22;7439;50.804;4.602;2023-05-10T13:00:54;15.10;1.00
14699;DHT22;7439;50.804;4.602;2023-05-10T13:03:22;15.30;99.90
14699;DHT22;7439;50.804;4.602;2023-05-10T13:05:49;15.40;1.00
14699;DHT22;7439;50.804;4.602;2023-05-10T13:08:16;15.30;1.00
14699;DHT22;7439;50.804;4.602;2023-05-10T13:10:43;15.30;1.00
14699;DHT22;7439;50.804;4.602;2023-05-10T13:13:11;15.10;1.00
14699;DHT22;7439;50.804;4.602;2023-05-10T13:15:39;15.10;1.00
14699;DHT22;7439;50.804;4.602;2023-05-10T13:18:06;14.90;1.00
14699;DHT22;7439;50.804;4.602;2023-05-10T13:20:33;14.70;1.00
14699;DHT22;7439;50.804;4.602;2023-05-10T13:23:01;14.70;1.00
14699;DHT22;7439;50.804;4.602;2023-05-10T13:25:28;14.60;1.00
14699;DHT22;7439;50.804;4.602;2023-05-10T13:27:55;14.70;1.00
14699;DHT22;7439;50.804;4.602;2023-05-10T13:30:22;14.80;1.00
14699;DHT22;7439;50.804;4.602;2023-05-10T13:32:52;14.80;1.00
14699;DHT22;7439;50.804;4.602;2023-05-10T13:35:21;14.90;1.00
14699;DHT22;7439;50.804;4.602;2023-05-10T13:37:48;15.10;99.90
14699;DHT22;7439;50.804;4.602;2023-05-10T13:40:15;15.10;99.90
14699;DHT22;7439;50.804;4.602;2023-05-10T13:42:42;15.10;99.90
14699;DHT22;7439;50.804;4.602;2023-05-10T13:45:10;15.00;99.90
14699;DHT22;7439;50.804;4.602;2023-05-10T13:47:38;15.00;99.90
14699;DHT22;7439;50.804;4.602;2023-05-10T13:50:07;15.00;99.90
14699;DHT22;7439;50.804;4.602;2023-05-10T13:52:34;15.10;99.90
14699;DHT22;7439;50.804;4.602;2023-05-10T13:55:02;15.20;99.90
14699;DHT22;7439;50.804;4.602;2023-05-10T13:57:29;15.20;99.90
14699;DHT22;7439;50.804;4.602;2023-05-10T13:59:56;15.10;99.90
14699;DHT22;7439;50.804;4.602;2023-05-10T14:02:23;15.00;99.90
14699;DHT22;7439;50.804;4.602;2023-05-10T14:04:53;15.00;99.90
14699;DHT22;7439;50.804;4.602;2023-05-10T14:07:21;15.00;99.90
14699;DHT22;7439;50.804;4.602;2023-05-10T14:09:48;15.10;99.90
14699;DHT22;7439;50.804;4.602;2023-05-10T14:12:15;15.30;99.90
14699;DHT22;7439;50.804;4.602;2023-05-10T14:14:43;15.50;99.90
14699;DHT22;7439;50.804;4.602;2023-05-10T14:17:10;15.60;99.90
14699;DHT22;7439;50.804;4.602;2023-05-10T14:19:37;15.60;88.70
14699;DHT22;7439;50.804;4.602;2023-05-10T14:22:04;15.80;99.90
14699;DHT22;7439;50.804;4.602;2023-05-10T14:24:33;15.90;17.50
14699;DHT22;7439;50.804;4.602;2023-05-10T14:27:00;15.90;38.70
14699;DHT22;7439;50.804;4.602;2023-05-10T14:29:27;16.10;1.00
14699;DHT22;7439;50.804;4.602;2023-05-10T14:31:58;16.00;1.00
14699;DHT22;7439;50.804;4.602;2023-05-10T14:34:25;16.00;1.00
14699;DHT22;7439;50.804;4.602;2023-05-10T14:36:52;15.60;1.00
14699;DHT22;7439;50.804;4.602;2023-05-10T14:39:19;15.50;1.00
14699;DHT22;7439;50.804;4.602;2023-05-10T14:41:48;15.40;1.00
14699;DHT22;7439;50.804;4.602;2023-05-10T14:44:17;15.50;1.00
14699;DHT22;7439;50.804;4.602;2023-05-10T14:46:44;15.50;1.00
14699;DHT22;7439;50.804;4.602;2023-05-10T14:49:11;15.50;1.00
14699;DHT22;7439;50.804;4.602;2023-05-10T14:51:38;15.50;1.00
14699;DHT22;7439;50.804;4.602;2023-05-10T14:54:05;15.50;1.00
14699;DHT22;7439;50.804;4.602;2023-05-10T14:56:32;15.50;1.00
14699;DHT22;7439;50.804;4.602;2023-05-10T14:59:00;15.60;1.00
14699;DHT22;7439;50.804;4.602;2023-05-10T15:01:29;15.60;1.00
14699;DHT22;7439;50.804;4.602;2023-05-10T15:03:57;15.40;1.00
14699;DHT22;7439;50.804;4.602;2023-05-10T15:06:30;15.20;1.00
14699;DHT22;7439;50.804;4.602;2023-05-10T15:08:58;15.40;1.00
14699;DHT22;7439;50.804;4.602;2023-05-10T15:11:25;15.40;1.00
14699;DHT22;7439;50.804;4.602;2023-05-10T15:13:53;15.50;9.60
14699;DHT22;7439;50.804;4.602;2023-05-10T15:16:21;15.60;1.00
14699;DHT22;7439;50.804;4.602;2023-05-10T15:18:48;15.70;1.00
14699;DHT22;7439;50.804;4.602;2023-05-10T15:21:16;15.60;1.00
14699;DHT22;7439;50.804;4.602;2023-05-10T15:23:43;15.50;1.00
14699;DHT22;7439;50.804;4.602;2023-05-10T15:26:10;15.50;1.00
14699;DHT22;7439;50.804;4.602;2023-05-10T15:28:37;15.40;1.00
14699;DHT22;7439;50.804;4.602;2023-05-10T15:31:05;15.40;1.00
14699;DHT22;7439;50.804;4.602;2023-05-10T15:33:33;15.30;1.00
14699;DHT22;7439;50.804;4.602;2023-05-10T15:36:00;15.20;1.00
14699;DHT22;7439;50.804;4.602;2023-05-10T15:38:29;14.90;99.90
14699;DHT22;7439;50.804;4.602;2023-05-10T15:40:57;14.50;48.50
14699;DHT22;7439;50.804;4.602;2023-05-10T15:43:24;14.10;99.90
14699;DHT22;7439;50.804;4.602;2023-05-10T15:45:51;13.60;99.90
14699;DHT22;7439;50.804;4.602;2023-05-10T15:48:19;13.30;99.90
14699;DHT22;7439;50.804;4.602;2023-05-10T15:50:48;13.10;1.00
14699;DHT22;7439;50.804;4.602;2023-05-10T15:53:15;13.00;5.60
14699;DHT22;7439;50.804;4.602;2023-05-10T15:55:42;12.90;99.90
14699;DHT22;7439;50.804;4.602;2023-05-10T15:58:10;12.80;99.90
14699;DHT22;7439;50.804;4.602;2023-05-10T16:00:37;12.80;1.00
14699;DHT22;7439;50.804;4.602;2023-05-10T16:03:04;12.80;1.00
14699;DHT22;7439;50.804;4.602;2023-05-10T16:05:31;12.80;4.80
14699;DHT22;7439;50.804;4.602;2023-05-10T16:08:00;12.80;99.90